Time;durP1;ratioP1;P1;durP2;ratioP2;P2;SDS_P1;SDS_P2;PMS_P1;PMS_P2;Temp;Humidity;BMP_temperature;BMP_pressure;BME280_temperature;BME280_humidity;BME280_pressure;Samples;Min_cycle;Max_cycle;Signal;HPM_P1;HPM_P2
2022/12/03 00:00:31;;;;;;;13.65;8.05;;;;;;;;;;5097729;28;20074;-76
2022/12/03 00:02:56;;;;;;;18.02;8.48;;;;;;;;;;5097595;28;20074;-77
2022/12/03 00:05:22;;;;;;;20.55;8.63;;;;;;;;;;5097557;28;20024;-77
2022/12/03 00:07:47;;;;;;;18.83;9.07;;;;;;;;;;5097499;28;20028;-77
2022/12/03 00:10:13;;;;;;;19.33;9.55;;;;;;;;;;5078270;28;20343;-77
2022/12/03 00:12:38;;;;;;;18.33;8.80;;;;;;;;;;5097259;28;20024;-79
2022/12/03 00:15:04;;;;;;;21.08;9.40;;;;;;;;;;5079170;28;20035;-77
2022/12/03 00:17:30;;;;;;;17.13;9.23;;;;;;;;;;5079370;28;20028;-77
2022/12/03 00:19:55;;;;;;;16.40;8.88;;;;;;;;;;5079117;28;20072;-77
2022/12/03 00:22:21;;;;;;;16.55;9.13;;;;;;;;;;5079292;28;20146;-77
2022/12/03 00:24:46;;;;;;;16.88;8.68;;;;;;;;;;5062553;28;20028;-77
2022/12/03 00:27:12;;;;;;;15.75;9.20;;;;;;;;;;5078590;28;20036;-77
2022/12/03 00:29:37;;;;;;;14.85;8.00;;;;;;;;;;5097113;28;20057;-77
2022/12/03 00:32:03;;;;;;;18.65;9.15;;;;;;;;;;5096906;28;20024;-77
2022/12/03 00:34:28;;;;;;;16.23;9.18;;;;;;;;;;5097231;28;20346;-77
2022/12/03 00:36:53;;;;;;;19.60;9.52;;;;;;;;;;5096802;28;20444;-77
2022/12/03 00:39:19;;;;;;;18.70;9.25;;;;;;;;;;5096741;28;20414;-76
2022/12/03 00:41:44;;;;;;;19.52;10.35;;;;;;;;;;5096549;28;20339;-77
2022/12/03 00:44:10;;;;;;;19.17;10.38;;;;;;;;;;5097227;28;20123;-77
2022/12/03 00:46:36;;;;;;;17.83;9.98;;;;;;;;;;5096689;28;20456;-77
2022/12/03 00:49:01;;;;;;;22.58;11.18;;;;;;;;;;5062009;28;20066;-77
2022/12/03 00:51:27;;;;;;;19.83;11.00;;;;;;;;;;5078487;28;20477;-76
2022/12/03 00:53:52;;;;;;;21.42;11.02;;;;;;;;;;5096497;28;20468;-77
2022/12/03 00:56:18;;;;;;;19.08;10.38;;;;;;;;;;5096760;28;20077;-77
2022/12/03 00:58:43;;;;;;;18.77;9.88;;;;;;;;;;5062006;28;20031;-78
2022/12/03 01:01:08;;;;;;;22.15;10.73;;;;;;;;;;5096426;28;20101;-78
2022/12/03 01:03:34;;;;;;;19.70;10.70;;;;;;;;;;5078152;28;20023;-77
2022/12/03 01:06:00;;;;;;;21.95;10.07;;;;;;;;;;5096285;28;20031;-77
2022/12/03 01:08:25;;;;;;;15.45;8.57;;;;;;;;;;5060085;28;20131;-77
2022/12/03 01:10:50;;;;;;;22.85;10.35;;;;;;;;;;5096539;28;20116;-77
2022/12/03 01:13:16;;;;;;;19.33;10.00;;;;;;;;;;5077035;28;20039;-77
2022/12/03 01:15:41;;;;;;;21.38;10.40;;;;;;;;;;5096183;28;20032;-77
2022/12/03 01:18:07;;;;;;;23.70;11.57;;;;;;;;;;5061265;28;20039;-77
2022/12/03 01:20:32;;;;;;;22.52;11.40;;;;;;;;;;5061528;28;20161;-77
2022/12/03 01:22:58;;;;;;;22.80;11.48;;;;;;;;;;5061483;28;20453;-77
2022/12/03 01:25:23;;;;;;;21.50;11.73;;;;;;;;;;5078188;28;20050;-76
2022/12/03 01:27:49;;;;;;;20.52;10.73;;;;;;;;;;5096266;28;20429;-78
2022/12/03 01:30:14;;;;;;;20.00;10.95;;;;;;;;;;5095914;28;20028;-78
2022/12/03 01:32:40;;;;;;;20.95;11.07;;;;;;;;;;5081936;28;20055;-77
2022/12/03 01:35:05;;;;;;;22.83;10.40;;;;;;;;;;5099301;28;20028;-77
2022/12/03 01:37:31;;;;;;;19.75;10.20;;;;;;;;;;5095580;28;20036;-77
2022/12/03 01:39:56;;;;;;;21.83;11.40;;;;;;;;;;5095608;28;20036;-77
2022/12/03 01:42:25;;;;;;;22.42;10.25;;;;;;;;;;5095719;28;20445;-77
2022/12/03 01:44:52;;;;;;;18.58;10.48;;;;;;;;;;5077556;28;20035;-77
2022/12/03 01:47:18;;;;;;;20.27;10.25;;;;;;;;;;5060956;28;20416;-77
2022/12/03 01:49:55;;;;;;;19.40;10.07;;;;;;;;;;5077321;28;20082;-77
2022/12/03 01:52:23;;;;;;;19.60;10.57;;;;;;;;;;5061692;28;20039;-77
2022/12/03 01:54:55;;;;;;;22.10;10.48;;;;;;;;;;5095369;28;20032;-77
2022/12/03 01:57:26;;;;;;;21.33;10.48;;;;;;;;;;5060875;28;20024;-77
2022/12/03 01:59:52;;;;;;;18.60;10.35;;;;;;;;;;5077102;28;20072;-77
2022/12/03 02:02:26;;;;;;;20.95;10.68;;;;;;;;;;5077140;28;20512;-77
2022/12/03 02:04:52;;;;;;;17.02;9.48;;;;;;;;;;5095090;28;20089;-77
2022/12/03 02:07:20;;;;;;;19.45;10.75;;;;;;;;;;5076889;28;20052;-77
2022/12/03 02:09:46;;;;;;;18.83;10.70;;;;;;;;;;5094981;28;20145;-77
2022/12/03 02:12:11;;;;;;;21.45;11.80;;;;;;;;;;5095019;28;20114;-77
2022/12/03 02:14:37;;;;;;;22.85;11.52;;;;;;;;;;5076039;28;20032;-77
2022/12/03 02:17:02;;;;;;;22.27;11.07;;;;;;;;;;5060187;28;20032;-77
2022/12/03 02:19:31;;;;;;;22.27;11.07;;;;;;;;;;5060223;28;20354;-79
2022/12/03 02:22:03;;;;;;;20.80;10.23;;;;;;;;;;5094531;28;20082;-77
2022/12/03 02:24:58;;;;;;;20.00;11.07;;;;;;;;;;5060567;28;20036;-77
2022/12/03 02:27:23;;;;;;;21.63;11.05;;;;;;;;;;5036937;28;20064;-78
2022/12/03 02:29:49;;;;;;;19.23;8.70;;;;;;;;;;5057539;28;20113;-77
2022/12/03 02:32:15;;;;;;;19.33;9.95;;;;;;;;;;5094949;28;20031;-77
2022/12/03 02:34:44;;;;;;;19.27;9.90;;;;;;;;;;5094687;28;20038;-77
2022/12/03 02:37:31;;;;;;;18.67;10.00;;;;;;;;;;5059657;28;20456;-77
2022/12/03 02:39:58;;;;;;;18.45;10.10;;;;;;;;;;5078702;28;20039;-76
2022/12/03 02:42:36;;;;;;;21.85;10.57;;;;;;;;;;5076484;28;20020;-78
2022/12/03 02:45:18;;;;;;;20.02;10.80;;;;;;;;;;5063070;28;20520;-77
2022/12/03 02:47:48;;;;;;;16.67;9.27;;;;;;;;;;5076401;28;20420;-77
2022/12/03 02:50:14;;;;;;;;;;;;;;;;;;5077479;28;20075;-77
2022/12/03 02:52:40;;;;;;;16.75;8.02;;;;;;;;;;5094165;28;19955;-77
2022/12/03 02:55:06;;;;;;;14.52;8.05;;;;;;;;;;5059773;28;20431;-78
2022/12/03 02:57:33;;;;;;;15.00;8.70;;;;;;;;;;5076056;28;20032;-79
2022/12/03 02:59:58;;;;;;;17.83;8.30;;;;;;;;;;5094104;28;20024;-78
2022/12/03 03:02:24;;;;;;;14.95;8.30;;;;;;;;;;5076065;28;20020;-77
2022/12/03 03:04:49;;;;;;;17.80;9.00;;;;;;;;;;5059080;28;20063;-78
2022/12/03 03:07:14;;;;;;;16.70;9.00;;;;;;;;;;5076053;28;20115;-77
2022/12/03 03:09:40;;;;;;;17.70;9.70;;;;;;;;;;5076088;28;20020;-78
2022/12/03 03:12:05;;;;;;;17.00;9.07;;;;;;;;;;5075812;28;20035;-78
2022/12/03 03:14:31;;;;;;;15.80;8.93;;;;;;;;;;5093997;28;20449;-78
2022/12/03 03:16:57;;;;;;;16.25;8.75;;;;;;;;;;5058409;28;20028;-78
2022/12/03 03:19:25;;;;;;;18.65;9.80;;;;;;;;;;5075558;28;20067;-78
2022/12/03 03:21:52;;;;;;;17.05;9.13;;;;;;;;;;5075924;28;20024;-78
2022/12/03 03:24:17;;;;;;;15.98;9.02;;;;;;;;;;5093895;28;20023;-78
2022/12/03 03:26:43;;;;;;;18.45;9.50;;;;;;;;;;5075860;28;20028;-78
2022/12/03 03:29:08;;;;;;;16.05;9.05;;;;;;;;;;5076002;28;20091;-79
2022/12/03 03:31:33;;;;;;;18.70;9.98;;;;;;;;;;5060498;28;20023;-78
2022/12/03 03:33:59;;;;;;;17.95;9.30;;;;;;;;;;5062992;28;20020;-77
2022/12/03 03:36:24;;;;;;;20.30;10.40;;;;;;;;;;5063244;28;20020;-78
2022/12/03 03:38:50;;;;;;;19.10;10.40;;;;;;;;;;5098202;28;20093;-77
2022/12/03 03:41:16;;;;;;;18.67;10.18;;;;;;;;;;5079957;28;20361;-77
2022/12/03 03:43:42;;;;;;;19.88;10.80;;;;;;;;;;5079874;28;20020;-78
2022/12/03 03:46:07;;;;;;;20.10;10.20;;;;;;;;;;5063318;28;20024;-77
2022/12/03 03:48:33;;;;;;;29.63;15.23;;;;;;;;;;5079673;28;20031;-79
2022/12/03 03:50:59;;;;;;;22.20;10.88;;;;;;;;;;5063087;28;20143;-77
2022/12/03 03:53:24;;;;;;;20.48;10.43;;;;;;;;;;5063236;28;20035;-78
2022/12/03 03:55:50;;;;;;;20.00;10.57;;;;;;;;;;5097854;28;20051;-77
2022/12/03 03:58:15;;;;;;;21.48;11.18;;;;;;;;;;5098275;28;20031;-78
2022/12/03 04:00:43;;;;;;;17.90;9.52;;;;;;;;;;5079888;28;20039;-77
2022/12/03 04:03:09;;;;;;;16.50;9.68;;;;;;;;;;5062893;28;20036;-79
2022/12/03 04:05:34;;;;;;;19.05;10.52;;;;;;;;;;5079739;28;20085;-78
2022/12/03 04:08:00;;;;;;;23.65;11.23;;;;;;;;;;5079722;28;20433;-77
2022/12/03 04:13:09;;;;;;;22.15;11.95;;;;;;;;;;5097575;28;20031;-77
2022/12/03 04:15:35;;;;;;;21.70;10.48;;;;;;;;;;5097367;28;20032;-78
2022/12/03 04:20:44;;;;;;;17.60;9.05;;;;;;;;;;5097600;28;20078;-77
2022/12/03 04:23:09;;;;;;;16.75;9.23;;;;;;;;;;5097476;28;20067;-76
2022/12/03 04:35:41;;;;;;;18.42;9.77;;;;;;;;;;5082476;28;20038;-77
2022/12/03 04:36:32;;;;;;;16.52;8.88;;;;;;;;;;5097907;28;20081;-77
2022/12/03 04:38:57;;;;;;;16.48;8.52;;;;;;;;;;5081249;28;20403;-78
2022/12/03 04:41:22;;;;;;;19.27;10.43;;;;;;;;;;5063121;28;20519;-78
2022/12/03 04:46:32;;;;;;;20.00;10.23;;;;;;;;;;5096415;28;20034;-77
2022/12/03 04:48:57;;;;;;;21.83;11.20;;;;;;;;;;5078644;28;20028;-77
2022/12/03 04:51:22;;;;;;;36.30;15.48;;;;;;;;;;5078351;28;20054;-77
2022/12/03 04:53:48;;;;;;;19.08;10.15;;;;;;;;;;5061799;28;20085;-77
2022/12/03 04:56:13;;;;;;;17.80;9.48;;;;;;;;;;5061750;28;20028;-77
2022/12/03 04:58:39;;;;;;;16.48;9.13;;;;;;;;;;5096672;28;20039;-78
2022/12/03 05:01:04;;;;;;;17.38;9.70;;;;;;;;;;5078108;28;20061;-77
2022/12/03 05:03:30;;;;;;;18.25;9.90;;;;;;;;;;5078341;28;20062;-78
2022/12/03 05:05:55;;;;;;;18.08;10.23;;;;;;;;;;5096311;28;20361;-77
2022/12/03 05:08:21;;;;;;;20.38;9.98;;;;;;;;;;5078516;28;20123;-77
2022/12/03 05:10:46;;;;;;;16.30;9.05;;;;;;;;;;5097079;28;20333;-78
2022/12/03 05:13:11;;;;;;;16.85;9.40;;;;;;;;;;5078164;28;20108;-78
2022/12/03 05:15:37;;;;;;;17.88;10.02;;;;;;;;;;5078046;28;20078;-78
2022/12/03 05:18:02;;;;;;;17.48;9.32;;;;;;;;;;5096384;28;20032;-78
2022/12/03 05:20:40;;;;;;;17.85;9.88;;;;;;;;;;5076815;28;20042;-79
2022/12/03 05:23:05;;;;;;;17.13;9.40;;;;;;;;;;5095963;28;20039;-78
2022/12/03 05:25:31;;;;;;;17.98;10.02;;;;;;;;;;5078099;28;20032;-77
2022/12/03 05:27:56;;;;;;;19.20;10.18;;;;;;;;;;5095901;28;20035;-78
2022/12/03 05:30:21;;;;;;;20.52;11.35;;;;;;;;;;5077451;28;20115;-77
2022/12/03 05:32:48;;;;;;;19.95;10.88;;;;;;;;;;5078015;28;20057;-77
2022/12/03 05:35:13;;;;;;;18.05;10.68;;;;;;;;;;5077796;28;20035;-76
2022/12/03 05:37:38;;;;;;;19.15;10.00;;;;;;;;;;5077814;28;20020;-78
2022/12/03 05:40:05;;;;;;;19.65;10.13;;;;;;;;;;5078091;28;20055;-77
2022/12/03 05:45:14;;;;;;;20.83;10.90;;;;;;;;;;5095298;28;20054;-77
2022/12/03 05:47:39;;;;;;;22.05;11.10;;;;;;;;;;5095491;28;20059;-78
2022/12/03 05:50:06;;;;;;;17.20;9.75;;;;;;;;;;5077476;28;20028;-77
2022/12/03 05:52:31;;;;;;;20.90;10.75;;;;;;;;;;5095433;28;20410;-78
2022/12/03 05:54:56;;;;;;;21.10;11.50;;;;;;;;;;5094801;28;20024;-77
2022/12/03 05:57:22;;;;;;;19.08;10.05;;;;;;;;;;5095259;28;20070;-78
2022/12/03 05:59:47;;;;;;;21.08;10.95;;;;;;;;;;5095007;28;20035;-79
2022/12/03 06:02:13;;;;;;;20.08;10.95;;;;;;;;;;5077123;28;20032;-77
2022/12/03 06:04:38;;;;;;;20.33;9.57;;;;;;;;;;5095496;28;20127;-78
2022/12/03 06:07:04;;;;;;;17.60;8.80;;;;;;;;;;5095206;28;20062;-77
2022/12/03 06:09:29;;;;;;;20.90;9.68;;;;;;;;;;5095030;28;20027;-77
2022/12/03 06:11:55;;;;;;;18.98;9.75;;;;;;;;;;5095132;28;20082;-78
2022/12/03 06:14:20;;;;;;;19.98;9.30;;;;;;;;;;5094746;28;20031;-77
2022/12/03 06:16:46;;;;;;;18.42;10.32;;;;;;;;;;5095117;28;20031;-77
2022/12/03 06:19:11;;;;;;;18.60;9.57;;;;;;;;;;5095165;28;20036;-76
2022/12/03 06:21:36;;;;;;;17.15;9.15;;;;;;;;;;5094912;28;20028;-77
2022/12/03 06:24:02;;;;;;;14.45;7.13;;;;;;;;;;5094930;28;20273;-77
2022/12/03 06:26:29;;;;;;;18.58;9.10;;;;;;;;;;5094838;28;20032;-77
2022/12/03 06:28:54;;;;;;;17.83;8.88;;;;;;;;;;5094841;28;20089;-77
2022/12/03 06:31:19;;;;;;;17.63;9.18;;;;;;;;;;5094804;28;20032;-78
2022/12/03 06:33:45;;;;;;;18.38;9.15;;;;;;;;;;5076694;28;20091;-77
2022/12/03 06:36:11;;;;;;;19.40;10.13;;;;;;;;;;5094649;28;20050;-77
2022/12/03 06:38:36;;;;;;;19.67;9.30;;;;;;;;;;5094585;28;20118;-78
2022/12/03 06:41:02;;;;;;;16.40;8.55;;;;;;;;;;5094765;28;20023;-78
2022/12/03 06:43:27;;;;;;;17.52;9.55;;;;;;;;;;5094507;28;20401;-77
2022/12/03 06:45:52;;;;;;;16.13;8.95;;;;;;;;;;5094362;28;20193;-77
2022/12/03 06:48:18;;;;;;;18.95;9.55;;;;;;;;;;5094248;28;20032;-76
2022/12/03 06:50:43;;;;;;;18.63;9.18;;;;;;;;;;5094354;28;20071;-77
2022/12/03 06:53:09;;;;;;;18.30;9.55;;;;;;;;;;5094453;28;20368;-78
2022/12/03 06:55:35;;;;;;;19.13;9.10;;;;;;;;;;5094509;28;20024;-77
2022/12/03 06:58:00;;;;;;;21.27;10.38;;;;;;;;;;5075984;28;20032;-77
2022/12/03 07:00:26;;;;;;;17.92;9.68;;;;;;;;;;5093951;28;20118;-77
2022/12/03 07:02:51;;;;;;;17.10;9.93;;;;;;;;;;5093900;28;20035;-78
2022/12/03 07:05:17;;;;;;;18.38;9.73;;;;;;;;;;5093847;28;20480;-77
2022/12/03 07:07:42;;;;;;;18.65;9.73;;;;;;;;;;5075593;28;20086;-78
2022/12/03 07:10:08;;;;;;;19.52;10.30;;;;;;;;;;5075846;28;20039;-79
2022/12/03 07:12:33;;;;;;;20.05;10.45;;;;;;;;;;5076162;28;20134;-76
2022/12/03 07:14:59;;;;;;;17.98;10.23;;;;;;;;;;5093871;28;20100;-78
2022/12/03 07:17:24;;;;;;;16.45;9.57;;;;;;;;;;5094154;28;20110;-78
2022/12/03 07:19:49;;;;;;;20.80;10.25;;;;;;;;;;5093740;28;20032;-78
2022/12/03 07:22:15;;;;;;;18.23;9.93;;;;;;;;;;5075954;28;20349;-78
2022/12/03 07:24:40;;;;;;;22.10;11.38;;;;;;;;;;5075960;28;20513;-77
2022/12/03 07:27:06;;;;;;;58.13;16.58;;;;;;;;;;5058703;28;20092;-77
2022/12/03 07:29:31;;;;;;;30.67;10.55;;;;;;;;;;5093848;28;20100;-78
2022/12/03 07:31:57;;;;;;;19.45;9.20;;;;;;;;;;5093811;28;20039;-78
2022/12/03 07:34:22;;;;;;;14.57;8.13;;;;;;;;;;5093678;28;20466;-77
2022/12/03 07:36:47;;;;;;;22.17;9.32;;;;;;;;;;5075778;28;20035;-77
2022/12/03 07:39:13;;;;;;;22.70;10.27;;;;;;;;;;5093660;28;20124;-77
2022/12/03 07:41:39;;;;;;;18.60;9.50;;;;;;;;;;5075447;28;20476;-78
2022/12/03 07:44:04;;;;;;;18.65;9.07;;;;;;;;;;5094089;28;20036;-77
2022/12/03 07:46:30;;;;;;;15.48;8.48;;;;;;;;;;5093762;28;20126;-77
2022/12/03 07:48:55;;;;;;;18.15;10.52;;;;;;;;;;5100948;28;20119;-78
2022/12/03 07:51:21;;;;;;;15.82;8.13;;;;;;;;;;5093418;28;20040;-77
2022/12/03 07:53:46;;;;;;;14.35;7.97;;;;;;;;;;5093818;28;20035;-77
2022/12/03 07:56:11;;;;;;;13.05;8.10;;;;;;;;;;5086786;28;20063;-77
2022/12/03 07:58:37;;;;;;;16.67;9.23;;;;;;;;;;5072368;28;20505;-77
2022/12/03 08:01:02;;;;;;;17.52;8.90;;;;;;;;;;5054352;28;20067;-77
2022/12/03 08:03:28;;;;;;;18.85;9.80;;;;;;;;;;5054774;28;20029;-78
2022/12/03 08:05:53;;;;;;;16.55;9.07;;;;;;;;;;5078696;28;20445;-78
2022/12/03 08:08:19;;;;;;;18.50;9.45;;;;;;;;;;5092776;28;20028;-77
2022/12/03 08:10:44;;;;;;;18.38;9.80;;;;;;;;;;5092778;28;20169;-78
2022/12/03 08:13:12;;;;;;;16.25;9.73;;;;;;;;;;5093306;28;20017;-78
2022/12/03 08:15:38;;;;;;;19.10;9.63;;;;;;;;;;5093298;28;20528;-78
2022/12/03 08:18:10;;;;;;;16.90;8.93;;;;;;;;;;5095264;28;20165;-78
2022/12/03 08:20:37;;;;;;;15.00;8.18;;;;;;;;;;5062507;28;20028;-78
2022/12/03 08:23:05;;;;;;;16.35;9.30;;;;;;;;;;5061943;28;20111;-76
2022/12/03 08:25:31;;;;;;;18.65;9.20;;;;;;;;;;5098086;28;20023;-77
2022/12/03 08:28:13;;;;;;;18.23;9.32;;;;;;;;;;5096767;28;20028;-77
2022/12/03 08:30:41;;;;;;;22.67;12.93;;;;;;;;;;5079028;28;20028;-77
2022/12/03 08:33:23;;;;;;;20.67;11.35;;;;;;;;;;5078796;28;20055;-78
2022/12/03 08:35:49;;;;;;;26.65;15.25;;;;;;;;;;5061477;28;20038;-78
2022/12/03 08:38:15;;;;;;;17.50;9.82;;;;;;;;;;5094655;28;20112;-78
2022/12/03 08:40:42;;;;;;;19.25;9.93;;;;;;;;;;5077299;28;20065;-78
2022/12/03 08:43:27;;;;;;;15.10;8.15;;;;;;;;;;5077629;28;20123;-78
2022/12/03 08:45:53;;;;;;;15.57;8.48;;;;;;;;;;5095913;28;20028;-80
2022/12/03 08:48:35;;;;;;;16.27;9.00;;;;;;;;;;5078089;28;20043;-77
2022/12/03 08:51:17;;;;;;;16.52;9.80;;;;;;;;;;5100157;28;20044;-78
2022/12/03 08:53:48;;;;;;;19.52;11.43;;;;;;;;;;5115216;28;20031;-78
2022/12/03 08:56:26;;;;;;;;;;;;;;;;;;5098160;28;20118;-78
2022/12/03 08:58:59;;;;;;;17.65;10.07;;;;;;;;;;5115516;28;20037;-78
2022/12/03 09:01:34;;;;;;;20.55;10.32;;;;;;;;;;5115037;28;20035;-78
2022/12/03 09:04:20;;;;;;;15.88;8.73;;;;;;;;;;5115386;28;20111;-78
2022/12/03 09:06:45;;;;;;;17.15;10.00;;;;;;;;;;5099000;28;20034;-78
2022/12/03 09:09:11;;;;;;;17.90;9.52;;;;;;;;;;5116307;28;20439;-77
2022/12/03 09:11:36;;;;;;;17.88;9.52;;;;;;;;;;5116698;28;20036;-78
2022/12/03 09:14:02;;;;;;;14.70;8.63;;;;;;;;;;5116480;28;20089;-78
2022/12/03 09:16:27;;;;;;;16.33;8.82;;;;;;;;;;5116282;28;20032;-78
2022/12/03 09:18:53;;;;;;;16.63;9.57;;;;;;;;;;5116017;28;20031;-78
2022/12/03 09:21:18;;;;;;;15.77;8.88;;;;;;;;;;5097858;28;20039;-78
2022/12/03 09:23:44;;;;;;;17.67;9.95;;;;;;;;;;5115915;28;20031;-78
2022/12/03 09:26:09;;;;;;;18.30;10.80;;;;;;;;;;5116057;28;20031;-78
2022/12/03 09:28:35;;;;;;;21.20;10.45;;;;;;;;;;5115340;28;20059;-78
2022/12/03 09:31:00;;;;;;;16.95;9.68;;;;;;;;;;5115692;28;20373;-78
2022/12/03 09:33:25;;;;;;;22.25;11.85;;;;;;;;;;5115928;28;20169;-79
2022/12/03 09:35:51;;;;;;;20.48;10.63;;;;;;;;;;5115759;28;20051;-78
2022/12/03 09:38:16;;;;;;;17.80;10.25;;;;;;;;;;5115942;28;20055;-78
2022/12/03 09:40:42;;;;;;;18.67;9.48;;;;;;;;;;5115803;28;20031;-78
2022/12/03 09:43:07;;;;;;;16.35;9.35;;;;;;;;;;5116204;28;20282;-79
2022/12/03 09:45:32;;;;;;;17.23;9.48;;;;;;;;;;5115897;28;20024;-78
2022/12/03 09:47:58;;;;;;;14.75;8.27;;;;;;;;;;5097568;28;20422;-78
2022/12/03 09:50:25;;;;;;;17.52;10.07;;;;;;;;;;5097341;28;20371;-78
2022/12/03 09:52:53;;;;;;;19.83;10.57;;;;;;;;;;5115731;28;20032;-78
2022/12/03 09:55:40;;;;;;;16.42;9.65;;;;;;;;;;5115641;28;20085;-78
2022/12/03 09:58:09;;;;;;;19.15;10.10;;;;;;;;;;5115410;28;20110;-78
2022/12/03 10:00:34;;;;;;;20.40;10.18;;;;;;;;;;5096936;28;20028;-78
2022/12/03 10:03:01;;;;;;;20.98;11.80;;;;;;;;;;5097470;28;20031;-78
2022/12/03 10:05:27;;;;;;;18.98;10.88;;;;;;;;;;5079960;28;20072;-78
2022/12/03 10:07:52;;;;;;;19.33;10.18;;;;;;;;;;5080260;28;20029;-78
2022/12/03 10:10:22;;;;;;;20.08;10.00;;;;;;;;;;5080320;28;20015;-78
2022/12/03 10:12:49;;;;;;;29.57;13.47;;;;;;;;;;5097641;28;20024;-78
2022/12/03 10:15:16;;;;;;;38.45;19.92;;;;;;;;;;5097701;28;20084;-78
2022/12/03 10:17:42;;;;;;;46.03;22.67;;;;;;;;;;5080382;28;20673;-78
2022/12/03 10:20:10;;;;;;;26.90;12.80;;;;;;;;;;5115421;28;20118;-79
2022/12/03 10:22:36;;;;;;;20.10;10.82;;;;;;;;;;5096261;28;20023;-78
2022/12/03 10:25:12;;;;;;;22.58;11.15;;;;;;;;;;5097357;28;20016;-78
2022/12/03 10:27:38;;;;;;;18.08;9.45;;;;;;;;;;5115261;28;20028;-78
2022/12/03 10:30:16;;;;;;;23.23;12.80;;;;;;;;;;5115158;28;20072;-78
2022/12/03 10:32:43;;;;;;;18.48;9.57;;;;;;;;;;5082144;28;20051;-77
2022/12/03 10:35:10;;;;;;;25.65;11.98;;;;;;;;;;5114873;28;20034;-78
2022/12/03 10:37:35;;;;;;;19.70;11.02;;;;;;;;;;5097006;28;20023;-77
2022/12/03 10:40:10;;;;;;;24.88;12.32;;;;;;;;;;5096575;28;20042;-78
2022/12/03 10:42:37;;;;;;;20.05;10.35;;;;;;;;;;5080336;28;20030;-77
2022/12/03 10:45:11;;;;;;;30.02;15.35;;;;;;;;;;5080346;28;20399;-79
2022/12/03 10:47:36;;;;;;;32.67;15.32;;;;;;;;;;5080516;28;20171;-77
2022/12/03 10:50:05;;;;;;;67.50;32.40;;;;;;;;;;5079745;28;20398;-78
2022/12/03 10:52:30;;;;;;;44.47;22.98;;;;;;;;;;5114853;28;20418;-78
2022/12/03 10:54:56;;;;;;;32.15;15.68;;;;;;;;;;5096810;28;20106;-78
2022/12/03 10:57:21;;;;;;;24.90;11.85;;;;;;;;;;5099147;28;20369;-78
2022/12/03 10:59:47;;;;;;;21.67;11.35;;;;;;;;;;5096598;28;20461;-78
2022/12/03 11:02:22;;;;;;;30.88;17.63;;;;;;;;;;5096329;28;20434;-78
2022/12/03 11:04:48;;;;;;;25.20;12.55;;;;;;;;;;5096048;28;20016;-78
2022/12/03 11:07:15;;;;;;;25.70;12.88;;;;;;;;;;5096033;28;20034;-77
2022/12/03 11:09:45;;;;;;;22.38;12.15;;;;;;;;;;5079648;28;20035;-78
2022/12/03 11:12:22;;;;;;;29.40;15.60;;;;;;;;;;5096329;28;20085;-77
2022/12/03 11:14:50;;;;;;;26.05;14.07;;;;;;;;;;5079666;28;20055;-78
2022/12/03 11:17:51;;;;;;;24.52;12.02;;;;;;;;;;5114643;28;20450;-78
2022/12/03 11:20:23;;;;;;;23.50;11.63;;;;;;;;;;5114584;28;20046;-78
2022/12/03 11:22:52;;;;;;;23.45;11.40;;;;;;;;;;5096274;28;20435;-78
2022/12/03 11:25:23;;;;;;;22.15;10.90;;;;;;;;;;5113236;28;20328;-78
2022/12/03 11:28:10;;;;;;;51.13;21.23;;;;;;;;;;5114031;28;20076;-78
2022/12/03 11:30:48;;;;;;;67.95;24.77;;;;;;;;;;5114144;28;20043;-78
2022/12/03 11:33:27;;;;;;;31.95;13.57;;;;;;;;;;5113869;28;20027;-78
2022/12/03 11:36:02;;;;;;;35.72;13.20;;;;;;;;;;5096068;28;20114;-77
2022/12/03 11:38:36;;;;;;;37.70;13.82;;;;;;;;;;5114632;28;20027;-78
2022/12/03 11:41:18;;;;;;;27.95;12.77;;;;;;;;;;5114160;28;20047;-78
2022/12/03 11:43:55;;;;;;;41.45;14.68;;;;;;;;;;5114202;28;20024;-78
2022/12/03 11:46:21;;;;;;;53.70;17.35;;;;;;;;;;5114069;28;20449;-78
2022/12/03 11:48:48;;;;;;;43.70;16.77;;;;;;;;;;5095939;28;20106;-78
2022/12/03 11:51:14;;;;;;;66.38;22.98;;;;;;;;;;5095865;28;20052;-78
2022/12/03 11:53:40;;;;;;;26.45;12.57;;;;;;;;;;5082323;28;20035;-78
2022/12/03 11:56:07;;;;;;;21.48;11.50;;;;;;;;;;5118136;28;20024;-78
2022/12/03 11:58:34;;;;;;;28.30;12.10;;;;;;;;;;5118132;28;20027;-78
2022/12/03 12:01:00;;;;;;;23.88;12.02;;;;;;;;;;5082685;28;20027;-78
2022/12/03 12:03:30;;;;;;;24.50;12.15;;;;;;;;;;5099810;28;20114;-78
2022/12/03 12:06:02;;;;;;;43.88;18.00;;;;;;;;;;5117881;28;20028;-78
2022/12/03 12:08:28;;;;;;;30.42;12.30;;;;;;;;;;5100085;28;20023;-78
2022/12/03 12:10:53;;;;;;;19.30;10.07;;;;;;;;;;5099643;28;20371;-77
2022/12/03 12:13:31;;;;;;;24.00;11.48;;;;;;;;;;5118076;28;20034;-78
2022/12/03 12:16:00;;;;;;;18.98;10.20;;;;;;;;;;5117467;28;20028;-78
2022/12/03 12:18:41;;;;;;;20.48;11.60;;;;;;;;;;5118103;28;20051;-77
2022/12/03 12:21:42;;;;;;;33.42;14.95;;;;;;;;;;5117486;28;20043;-79
2022/12/03 12:24:56;;;;;;;26.30;12.45;;;;;;;;;;5117917;28;20023;-78
2022/12/03 12:27:36;;;;;;;35.53;16.20;;;;;;;;;;5116764;28;20404;-79
2022/12/03 12:30:16;;;;;;;31.00;15.55;;;;;;;;;;5117437;28;20126;-80
2022/12/03 12:32:49;;;;;;;26.73;13.00;;;;;;;;;;5099330;28;20050;-78
2022/12/03 12:35:14;;;;;;;29.58;13.70;;;;;;;;;;5083012;28;20027;-78
2022/12/03 12:37:47;;;;;;;21.85;11.30;;;;;;;;;;5117491;28;20035;-78
2022/12/03 12:40:14;;;;;;;22.00;10.73;;;;;;;;;;5099157;28;20035;-78
2022/12/03 12:42:58;;;;;;;20.58;10.43;;;;;;;;;;5099293;28;20349;-78
2022/12/03 12:45:43;;;;;;;18.88;10.20;;;;;;;;;;5116915;28;20027;-78
2022/12/03 12:48:11;;;;;;;21.38;11.30;;;;;;;;;;5117779;28;20027;-77
2022/12/03 12:50:37;;;;;;;19.63;10.48;;;;;;;;;;5117001;28;20544;-79
2022/12/03 12:53:28;;;;;;;23.23;10.68;;;;;;;;;;5117353;28;20114;-78
2022/12/03 12:55:55;;;;;;;20.38;10.93;;;;;;;;;;5101306;28;20039;-77
2022/12/03 12:58:21;;;;;;;22.77;11.32;;;;;;;;;;5082102;28;20123;-78
2022/12/03 13:00:54;;;;;;;18.73;9.65;;;;;;;;;;5116707;28;20670;-79
2022/12/03 13:03:21;;;;;;;20.90;10.85;;;;;;;;;;5097913;28;20023;-79
2022/12/03 13:05:48;;;;;;;22.63;12.15;;;;;;;;;;5081453;28;20028;-77
2022/12/03 13:08:51;;;;;;;25.58;12.07;;;;;;;;;;5116898;28;20030;-78
2022/12/03 13:11:44;;;;;;;30.52;12.90;;;;;;;;;;5060579;28;20031;-78
2022/12/03 13:14:20;;;;;;;24.38;12.65;;;;;;;;;;5098969;28;20081;-78
2022/12/03 13:16:46;;;;;;;34.30;15.18;;;;;;;;;;5098587;28;20028;-77
2022/12/03 13:19:22;;;;;;;30.77;14.25;;;;;;;;;;5098569;28;20077;-79
2022/12/03 13:21:48;;;;;;;27.63;13.65;;;;;;;;;;5098772;28;20030;-77
2022/12/03 13:24:39;;;;;;;29.15;13.70;;;;;;;;;;5116594;28;20376;-78
2022/12/03 13:27:16;;;;;;;36.88;15.98;;;;;;;;;;5081549;28;20027;-77
2022/12/03 13:29:42;;;;;;;36.22;17.30;;;;;;;;;;5097896;28;20038;-79
2022/12/03 13:32:17;;;;;;;35.22;15.15;;;;;;;;;;5116719;28;20367;-79
2022/12/03 13:34:43;;;;;;;27.63;14.80;;;;;;;;;;5098345;28;20452;-77
2022/12/03 13:37:22;;;;;;;36.28;15.52;;;;;;;;;;5098336;28;20437;-77
2022/12/03 13:39:57;;;;;;;36.58;16.67;;;;;;;;;;5098332;28;20036;-79
2022/12/03 13:42:53;;;;;;;36.38;17.48;;;;;;;;;;5115337;28;20020;-78
2022/12/03 13:45:18;;;;;;;40.80;19.48;;;;;;;;;;5094105;28;20076;-78
2022/12/03 13:47:52;;;;;;;44.00;19.95;;;;;;;;;;5116327;28;20399;-78
2022/12/03 13:50:34;;;;;;;34.75;18.52;;;;;;;;;;5098522;28;20023;-79
2022/12/03 13:53:01;;;;;;;36.42;16.63;;;;;;;;;;5080769;28;20126;-77
2022/12/03 13:55:28;;;;;;;32.72;15.02;;;;;;;;;;5116009;28;20153;-78
2022/12/03 13:57:54;;;;;;;36.53;15.80;;;;;;;;;;5080752;28;20092;-78
2022/12/03 14:00:19;;;;;;;31.40;14.93;;;;;;;;;;5097804;28;20373;-78
2022/12/03 14:02:45;;;;;;;33.42;15.70;;;;;;;;;;5116296;28;20027;-77
2022/12/03 14:05:10;;;;;;;33.67;15.52;;;;;;;;;;5118526;28;20024;-78
2022/12/03 14:07:37;;;;;;;35.17;15.57;;;;;;;;;;5115585;28;20083;-78
2022/12/03 14:10:03;;;;;;;34.10;15.85;;;;;;;;;;5115562;28;20026;-76
2022/12/03 14:12:32;;;;;;;32.03;15.40;;;;;;;;;;5115183;28;20020;-78
2022/12/03 14:14:58;;;;;;;31.45;14.43;;;;;;;;;;5114944;28;20027;-78
2022/12/03 14:17:24;;;;;;;37.53;16.50;;;;;;;;;;5097142;28;20015;-79
2022/12/03 14:19:49;;;;;;;32.88;16.88;;;;;;;;;;5115266;28;20026;-78
2022/12/03 14:22:16;;;;;;;34.97;15.25;;;;;;;;;;5097339;28;20023;-79
2022/12/03 14:24:49;;;;;;;35.13;15.65;;;;;;;;;;5115795;28;20104;-77
2022/12/03 14:27:14;;;;;;;31.35;13.35;;;;;;;;;;5096806;28;20434;-77
2022/12/03 14:29:40;;;;;;;29.52;13.57;;;;;;;;;;5115213;28;20031;-78
2022/12/03 14:32:06;;;;;;;30.65;14.25;;;;;;;;;;5115131;28;20035;-78
2022/12/03 14:34:32;;;;;;;31.65;14.10;;;;;;;;;;5115128;28;20372;-79
2022/12/03 14:36:57;;;;;;;34.25;14.73;;;;;;;;;;5114965;28;20020;-78
2022/12/03 14:39:23;;;;;;;33.33;15.23;;;;;;;;;;5114914;28;20033;-77
2022/12/03 14:44:32;;;;;;;32.75;14.60;;;;;;;;;;5114867;28;20041;-77
2022/12/03 14:46:58;;;;;;;42.15;17.55;;;;;;;;;;5115105;28;20504;-78
2022/12/03 14:49:24;;;;;;;31.80;15.02;;;;;;;;;;5113663;28;20447;-77
2022/12/03 14:51:49;;;;;;;33.75;17.17;;;;;;;;;;5096717;28;20057;-78